createdAt,value
2018-12-31T00:00:06.621Z,438.81
2018-12-31T00:01:06.641Z,433.79
2018-12-31T00:02:06.653Z,435.12
2018-12-31T00:03:06.611Z,436.95
2018-12-31T00:04:06.582Z,441.42
2018-12-31T00:05:06.574Z,438.37
2018-12-31T00:06:06.572Z,436.84
2018-12-31T00:07:06.560Z,439.39
2018-12-31T00:08:06.574Z,438.99
2018-12-31T00:09:06.532Z,438.26
2018-12-31T00:10:06.521Z,439.89
2018-12-31T00:11:06.498Z,441.07
2018-12-31T00:12:06.497Z,436.71
2018-12-31T00:13:06.549Z,435.12
2018-12-31T00:14:06.468Z,442.72
2018-12-31T00:15:06.466Z,436.99
2018-12-31T00:16:06.461Z,439.77
2018-12-31T00:17:06.453Z,435.98
2018-12-31T00:18:06.425Z,437.01
2018-12-31T00:19:06.440Z,441.39
2018-12-31T00:20:06.410Z,435.23
2018-12-31T00:21:06.402Z,434.01
2018-12-31T00:22:06.402Z,432.91
2018-12-31T00:23:06.369Z,434.72
2018-12-31T00:24:06.392Z,436.53
2018-12-31T00:25:06.351Z,436.82
2018-12-31T00:26:06.340Z,435.71
2018-12-31T00:27:06.354Z,432.46
2018-12-31T00:28:06.340Z,435.86
2018-12-31T00:29:06.310Z,438.50
2018-12-31T00:30:06.334Z,436.21
2018-12-31T00:31:06.282Z,437.47
2018-12-31T00:32:06.281Z,433.03
2018-12-31T00:33:06.274Z,434.64
2018-12-31T00:34:06.258Z,433.42
2018-12-31T00:35:06.251Z,431.74
2018-12-31T00:36:06.246Z,437.24
2018-12-31T00:37:06.213Z,435.29
2018-12-31T00:38:06.213Z,433.57
2018-12-31T00:39:06.236Z,437.62
2018-12-31T00:40:06.199Z,439.30
2018-12-31T00:41:06.225Z,432.85
2018-12-31T00:42:06.184Z,432.99
2018-12-31T00:43:06.152Z,440.60
2018-12-31T00:44:06.142Z,432.67
2018-12-31T00:45:06.161Z,433.81
2018-12-31T00:46:06.116Z,433.05
2018-12-31T00:47:06.121Z,432.55
2018-12-31T00:48:06.110Z,436.13
2018-12-31T00:49:06.084Z,434.40
2018-12-31T00:50:06.073Z,439.49
2018-12-31T00:51:06.096Z,437.90
2018-12-31T00:52:06.061Z,434.76
2018-12-31T00:53:06.071Z,437.68
2018-12-31T00:54:06.051Z,434.81
2018-12-31T00:55:06.026Z,432.57
2018-12-31T00:56:06.023Z,430.64
2018-12-31T00:57:06.004Z,434.73
2018-12-31T00:58:06.007Z,436.59
2018-12-31T00:59:06.777Z,444.54
2018-12-31T01:00:05.983Z,435.58
2018-12-31T01:01:05.965Z,434.58
2018-12-31T01:02:05.966Z,429.26
2018-12-31T01:03:05.951Z,432.42
2018-12-31T01:04:05.928Z,433.04
2018-12-31T01:05:05.933Z,434.35
2018-12-31T01:06:05.909Z,437.78
2018-12-31T01:07:05.902Z,437.10
2018-12-31T01:08:05.907Z,434.60
2018-12-31T01:09:05.877Z,433.85
2018-12-31T01:10:05.856Z,432.03
2018-12-31T01:11:05.857Z,431.11
2018-12-31T01:12:05.847Z,434.22
2018-12-31T01:13:05.848Z,432.61
2018-12-31T01:14:05.820Z,431.96
2018-12-31T01:15:05.818Z,433.22
2018-12-31T01:16:05.797Z,434.49
2018-12-31T01:17:05.786Z,433.39
2018-12-31T01:18:05.800Z,429.70
2018-12-31T01:19:05.769Z,433.20
2018-12-31T01:20:05.751Z,436.05
2018-12-31T01:21:05.731Z,430.98
2018-12-31T01:22:05.727Z,434.68
2018-12-31T01:23:05.741Z,432.37
2018-12-31T01:24:05.709Z,434.77
2018-12-31T01:25:05.711Z,430.48
2018-12-31T01:26:05.687Z,435.65
2018-12-31T01:27:05.665Z,431.57
2018-12-31T01:28:05.691Z,432.25
2018-12-31T01:29:05.644Z,435.45
2018-12-31T01:30:05.637Z,431.53
2018-12-31T01:31:05.629Z,436.95
2018-12-31T01:32:05.635Z,430.52
2018-12-31T01:33:05.636Z,433.78
2018-12-31T01:34:05.614Z,431.74
2018-12-31T01:35:05.580Z,436.09
2018-12-31T01:36:05.584Z,434.84
2018-12-31T01:37:05.624Z,434.35
2018-12-31T01:38:05.578Z,427.49
2018-12-31T01:39:05.539Z,427.24
2018-12-31T01:40:05.532Z,429.08
2018-12-31T01:41:05.551Z,427.92
2018-12-31T01:42:05.501Z,433.01
2018-12-31T01:43:05.503Z,426.98
2018-12-31T01:44:05.495Z,436.06
2018-12-31T01:45:05.487Z,433.29
2018-12-31T01:46:05.479Z,432.88
2018-12-31T01:47:05.485Z,435.06
2018-12-31T01:48:05.439Z,432.72
2018-12-31T01:49:05.485Z,434.95
2018-12-31T01:50:05.461Z,429.79
2018-12-31T01:51:11.276Z,436.24
2018-12-31T01:52:06.411Z,428.96
2018-12-31T01:53:05.383Z,429.52
2018-12-31T01:54:05.373Z,431.47
2018-12-31T01:55:05.381Z,430.72
2018-12-31T01:56:05.386Z,434.83
2018-12-31T01:57:05.372Z,432.01
2018-12-31T01:58:05.339Z,431.64
2018-12-31T01:59:05.316Z,429.90
2018-12-31T02:00:05.324Z,433.05
2018-12-31T02:01:05.298Z,428.54
2018-12-31T02:02:05.307Z,432.81
2018-12-31T02:03:05.280Z,429.47
2018-12-31T02:04:05.293Z,428.77
2018-12-31T02:05:05.265Z,424.01
2018-12-31T02:06:05.278Z,434.13
2018-12-31T02:07:05.242Z,431.91
2018-12-31T02:08:05.223Z,433.49
2018-12-31T02:09:05.231Z,430.41
2018-12-31T02:10:05.206Z,429.52
2018-12-31T02:11:05.204Z,431.48
2018-12-31T02:12:05.180Z,428.75
2018-12-31T02:13:05.168Z,429.73
2018-12-31T02:14:05.154Z,428.00
2018-12-31T02:15:05.149Z,429.90
2018-12-31T02:16:05.172Z,434.70
2018-12-31T02:17:05.133Z,434.74
2018-12-31T02:18:05.122Z,430.96
2018-12-31T02:19:05.104Z,425.10
2018-12-31T02:20:05.088Z,433.33
2018-12-31T02:21:05.099Z,430.16
2018-12-31T02:22:05.064Z,431.60
2018-12-31T02:23:05.061Z,428.59
2018-12-31T02:24:05.062Z,432.63
2018-12-31T02:25:05.041Z,428.91
2018-12-31T02:26:05.049Z,432.42
2018-12-31T02:27:05.042Z,432.15
2018-12-31T02:28:05.018Z,432.73
2018-12-31T02:29:05.003Z,427.84
2018-12-31T02:30:04.996Z,430.87
2018-12-31T02:31:05.001Z,427.29
2018-12-31T02:32:04.955Z,430.45
2018-12-31T02:33:04.957Z,427.37
2018-12-31T02:34:04.947Z,426.96
2018-12-31T02:35:04.940Z,430.52
2018-12-31T02:36:04.956Z,430.40
2018-12-31T02:37:04.912Z,435.48
2018-12-31T02:38:04.906Z,427.98
2018-12-31T02:39:04.883Z,431.05
2018-12-31T02:40:04.881Z,430.30
2018-12-31T02:41:04.882Z,430.97
2018-12-31T02:42:04.886Z,431.40
2018-12-31T02:43:04.836Z,425.14
2018-12-31T02:44:04.856Z,429.59
2018-12-31T02:45:04.817Z,428.60
2018-12-31T02:46:04.878Z,425.78
2018-12-31T02:47:04.804Z,433.37
2018-12-31T02:48:04.820Z,428.87
2018-12-31T02:49:04.785Z,429.39
2018-12-31T02:50:04.777Z,425.89
2018-12-31T02:51:04.750Z,430.13
2018-12-31T02:52:04.743Z,429.51
2018-12-31T02:53:04.740Z,430.49
2018-12-31T02:54:04.743Z,430.47
2018-12-31T02:55:04.723Z,428.52
2018-12-31T02:56:04.717Z,426.66
2018-12-31T02:57:04.684Z,429.29
2018-12-31T02:58:04.707Z,430.81
2018-12-31T02:59:04.677Z,425.90
2018-12-31T03:00:04.662Z,429.15
2018-12-31T03:01:04.648Z,426.60
2018-12-31T03:02:04.638Z,425.71
2018-12-31T03:03:04.619Z,428.57
2018-12-31T03:04:04.644Z,430.64
2018-12-31T03:05:04.618Z,428.50
2018-12-31T03:06:04.590Z,428.32
2018-12-31T03:07:04.593Z,431.32
2018-12-31T03:08:04.593Z,429.97
2018-12-31T03:09:04.566Z,427.29
2018-12-31T03:10:04.572Z,430.81
2018-12-31T03:11:04.541Z,429.43
2018-12-31T03:12:04.538Z,429.51
2018-12-31T03:13:04.527Z,434.21
2018-12-31T03:14:04.541Z,428.95
2018-12-31T03:15:04.500Z,429.99
2018-12-31T03:16:04.480Z,435.51
2018-12-31T03:17:04.469Z,428.59
2018-12-31T03:18:04.465Z,430.96
2018-12-31T03:19:04.474Z,427.92
2018-12-31T03:20:04.446Z,428.86
2018-12-31T03:21:04.449Z,426.39
2018-12-31T03:22:04.417Z,425.31
2018-12-31T03:23:04.406Z,426.61
2018-12-31T03:24:04.420Z,428.68
2018-12-31T03:25:04.383Z,425.41
2018-12-31T03:26:04.373Z,429.63
2018-12-31T03:27:04.370Z,427.10
2018-12-31T03:28:04.359Z,431.02
2018-12-31T03:29:04.378Z,427.86
2018-12-31T03:30:04.340Z,428.16
2018-12-31T03:31:04.324Z,432.62
2018-12-31T03:32:04.318Z,428.65
2018-12-31T03:33:04.304Z,423.12
2018-12-31T03:34:04.300Z,424.64
2018-12-31T03:35:04.296Z,423.96
2018-12-31T03:36:04.265Z,427.97
2018-12-31T03:37:04.253Z,427.08
2018-12-31T03:38:04.236Z,427.70
2018-12-31T03:39:04.237Z,426.43
2018-12-31T03:40:04.248Z,427.90
2018-12-31T03:41:04.240Z,430.55
2018-12-31T03:42:04.206Z,429.33
2018-12-31T03:43:04.207Z,427.72
2018-12-31T03:44:04.179Z,426.98
2018-12-31T03:45:04.165Z,430.55
2018-12-31T03:46:04.185Z,429.71
2018-12-31T03:47:04.151Z,427.68
2018-12-31T03:48:04.130Z,426.28
2018-12-31T03:49:04.119Z,425.27
2018-12-31T03:50:04.108Z,424.74
2018-12-31T03:51:04.115Z,430.05
2018-12-31T03:52:04.123Z,427.98
2018-12-31T03:53:04.087Z,425.36
2018-12-31T03:54:04.079Z,428.50
2018-12-31T03:55:04.054Z,429.42
2018-12-31T03:56:04.043Z,429.62
2018-12-31T03:57:04.033Z,429.19
2018-12-31T03:58:04.043Z,430.20
2018-12-31T03:59:04.018Z,429.11
2018-12-31T04:00:04.025Z,426.39
2018-12-31T04:01:03.991Z,432.19
2018-12-31T04:02:03.998Z,431.80
2018-12-31T04:03:03.978Z,427.96
2018-12-31T04:04:03.999Z,425.92
2018-12-31T04:05:03.961Z,427.60
2018-12-31T04:06:03.948Z,428.80
2018-12-31T04:07:03.922Z,425.74
2018-12-31T04:08:03.937Z,430.79
2018-12-31T04:09:03.908Z,428.21
2018-12-31T04:10:03.890Z,427.34
2018-12-31T04:11:03.895Z,427.21
2018-12-31T04:12:03.904Z,430.05
2018-12-31T04:13:03.889Z,435.40
2018-12-31T04:14:03.854Z,427.06
2018-12-31T04:15:03.843Z,430.98
2018-12-31T04:16:03.864Z,427.92
2018-12-31T04:17:03.824Z,425.90
2018-12-31T04:18:03.818Z,429.77
2018-12-31T04:19:03.823Z,429.39
2018-12-31T04:20:03.779Z,426.13
2018-12-31T04:21:03.788Z,425.31
2018-12-31T04:22:03.753Z,431.52
2018-12-31T04:23:03.768Z,429.04
2018-12-31T04:24:03.761Z,429.79
2018-12-31T04:25:03.775Z,430.91
2018-12-31T04:26:03.717Z,432.38
2018-12-31T04:27:03.708Z,445.96
2018-12-31T04:28:03.697Z,440.37
2018-12-31T04:29:03.686Z,434.57
2018-12-31T04:30:03.671Z,431.25
2018-12-31T04:31:03.693Z,430.18
2018-12-31T04:32:03.669Z,427.57
2018-12-31T04:33:03.643Z,428.68
2018-12-31T04:34:03.709Z,430.50
2018-12-31T04:35:03.639Z,436.49
2018-12-31T04:36:03.617Z,440.64
2018-12-31T04:37:03.626Z,435.59
2018-12-31T04:38:03.597Z,434.93
2018-12-31T04:39:03.574Z,432.34
2018-12-31T04:40:03.591Z,430.65
2018-12-31T04:41:03.551Z,430.14
2018-12-31T04:42:03.545Z,431.53
2018-12-31T04:43:03.549Z,425.81
2018-12-31T04:44:03.535Z,428.15
2018-12-31T04:45:03.528Z,426.30
2018-12-31T04:46:03.529Z,430.07
2018-12-31T04:47:03.487Z,431.34
2018-12-31T04:48:03.500Z,432.51
2018-12-31T04:49:03.481Z,431.93
2018-12-31T04:50:03.481Z,430.12
2018-12-31T04:51:03.442Z,427.71
2018-12-31T04:52:03.452Z,426.99
2018-12-31T04:53:03.440Z,430.26
2018-12-31T04:54:03.428Z,428.38
2018-12-31T04:55:03.438Z,440.20
2018-12-31T04:56:03.401Z,432.55
2018-12-31T04:57:03.381Z,434.97
2018-12-31T04:58:03.432Z,431.25
2018-12-31T04:59:03.351Z,438.48
2018-12-31T05:00:03.354Z,432.12
2018-12-31T05:01:03.353Z,432.85
2018-12-31T05:02:03.324Z,432.39
2018-12-31T05:03:03.330Z,433.65
2018-12-31T05:04:03.331Z,426.74
2018-12-31T05:05:03.287Z,430.64
2018-12-31T05:06:03.349Z,435.12
2018-12-31T05:07:03.287Z,434.18
2018-12-31T05:08:03.263Z,431.32
2018-12-31T05:09:03.259Z,435.66
2018-12-31T05:10:03.269Z,429.94
2018-12-31T05:11:03.224Z,430.64
2018-12-31T05:12:03.217Z,430.35
2018-12-31T05:13:03.210Z,431.09
2018-12-31T05:14:03.189Z,431.31
2018-12-31T05:15:03.217Z,431.35
2018-12-31T05:16:03.174Z,428.61
2018-12-31T05:17:03.171Z,433.33
2018-12-31T05:18:03.172Z,433.92
2018-12-31T05:19:03.146Z,431.55
2018-12-31T05:20:03.150Z,431.08
2018-12-31T05:21:03.126Z,425.90
2018-12-31T05:22:03.122Z,431.10
2018-12-31T05:23:03.120Z,436.34
2018-12-31T05:24:03.103Z,426.45
2018-12-31T05:25:03.111Z,436.30
2018-12-31T05:26:03.068Z,435.37
2018-12-31T05:27:03.065Z,435.63
2018-12-31T05:28:03.047Z,430.59
2018-12-31T05:29:03.053Z,437.04
2018-12-31T05:30:03.027Z,433.98
2018-12-31T05:31:03.029Z,427.46
2018-12-31T05:32:03.005Z,431.28
2018-12-31T05:33:02.987Z,429.58
2018-12-31T05:34:02.974Z,451.58
2018-12-31T05:35:03.014Z,439.40
2018-12-31T05:36:02.961Z,436.92
2018-12-31T05:37:03.009Z,430.95
2018-12-31T05:38:02.931Z,436.11
2018-12-31T05:39:02.948Z,434.59
2018-12-31T05:40:02.923Z,431.08
2018-12-31T05:41:02.930Z,434.91
2018-12-31T05:42:02.905Z,442.35
2018-12-31T05:43:02.895Z,452.58
2018-12-31T05:44:02.869Z,446.04
2018-12-31T05:45:02.883Z,438.21
2018-12-31T05:46:02.852Z,438.27
2018-12-31T05:47:02.860Z,433.16
2018-12-31T05:48:02.833Z,438.57
2018-12-31T05:49:02.820Z,435.88
2018-12-31T05:50:02.817Z,434.26
2018-12-31T05:51:02.824Z,437.87
2018-12-31T05:52:02.777Z,434.77
2018-12-31T05:53:02.779Z,445.06
2018-12-31T05:54:02.772Z,435.80
2018-12-31T05:55:02.747Z,435.36
2018-12-31T05:56:02.734Z,430.17
2018-12-31T05:57:02.743Z,429.69
2018-12-31T05:58:02.713Z,431.58
2018-12-31T05:59:02.734Z,427.79
2018-12-31T06:00:02.710Z,435.57
2018-12-31T06:01:02.689Z,435.59
2018-12-31T06:02:02.696Z,434.53
2018-12-31T06:03:02.657Z,434.76
2018-12-31T06:04:02.655Z,434.74
2018-12-31T06:05:02.633Z,436.24
2018-12-31T06:06:02.633Z,437.29
2018-12-31T06:07:02.656Z,434.51
2018-12-31T06:08:02.621Z,438.52
2018-12-31T06:09:02.593Z,435.59
2018-12-31T06:10:02.589Z,431.40
2018-12-31T06:11:02.591Z,431.01
2018-12-31T06:12:02.571Z,435.43
2018-12-31T06:13:02.585Z,435.72
2018-12-31T06:14:02.555Z,434.41
2018-12-31T06:15:02.530Z,432.97
2018-12-31T06:16:02.515Z,435.20
2018-12-31T06:17:02.513Z,450.52
2018-12-31T06:18:02.516Z,455.85
2018-12-31T06:19:02.503Z,444.27
2018-12-31T06:20:02.483Z,438.95
2018-12-31T06:21:02.473Z,441.62
2018-12-31T06:22:02.461Z,442.64
2018-12-31T06:23:02.464Z,439.10
2018-12-31T06:24:02.429Z,435.36
2018-12-31T06:25:02.440Z,437.70
2018-12-31T06:26:02.416Z,435.18
2018-12-31T06:27:02.399Z,437.36
2018-12-31T06:28:02.420Z,435.65
2018-12-31T06:29:02.388Z,433.29
2018-12-31T06:30:02.563Z,435.16
2018-12-31T06:31:02.367Z,435.89
2018-12-31T06:32:02.353Z,430.27
2018-12-31T06:33:02.340Z,433.96
2018-12-31T06:34:02.361Z,438.72
2018-12-31T06:35:02.325Z,437.77
2018-12-31T06:36:02.308Z,435.83
2018-12-31T06:37:02.291Z,440.90
2018-12-31T06:38:02.357Z,438.28
2018-12-31T06:39:02.282Z,437.48
2018-12-31T06:40:02.263Z,433.50
2018-12-31T06:41:02.242Z,433.76
2018-12-31T06:42:02.238Z,435.46
2018-12-31T06:43:02.241Z,437.58
2018-12-31T06:44:02.260Z,435.61
2018-12-31T06:45:02.210Z,432.08
2018-12-31T06:46:02.196Z,430.66
2018-12-31T06:47:02.265Z,434.69
2018-12-31T06:48:02.180Z,433.54
2018-12-31T06:49:02.184Z,431.55
2018-12-31T06:50:02.149Z,435.37
2018-12-31T06:51:02.143Z,432.46
2018-12-31T06:52:02.138Z,432.83
2018-12-31T06:53:02.148Z,433.76
2018-12-31T06:54:02.119Z,433.98
2018-12-31T06:55:02.097Z,434.08
2018-12-31T06:56:02.082Z,438.18
2018-12-31T06:57:02.078Z,437.33
2018-12-31T06:58:02.093Z,436.17
2018-12-31T06:59:02.049Z,434.54
2018-12-31T07:00:02.041Z,435.14
2018-12-31T07:01:02.037Z,433.40
2018-12-31T07:02:02.022Z,434.97
2018-12-31T07:03:02.034Z,433.30
2018-12-31T07:04:02.015Z,437.27
2018-12-31T07:05:01.995Z,431.55
2018-12-31T07:06:02.027Z,433.12
2018-12-31T07:07:01.958Z,436.34
2018-12-31T07:08:01.953Z,433.73
2018-12-31T07:09:01.941Z,437.79
2018-12-31T07:10:01.932Z,434.98
2018-12-31T07:11:01.927Z,433.11
2018-12-31T07:12:02.368Z,434.65
2018-12-31T07:13:01.900Z,433.09
2018-12-31T07:14:01.887Z,433.44
2018-12-31T07:15:01.880Z,433.07
2018-12-31T07:16:01.873Z,434.95
2018-12-31T07:17:01.871Z,440.05
2018-12-31T07:18:01.872Z,436.26
2018-12-31T07:19:01.828Z,438.74
2018-12-31T07:20:01.816Z,432.93
2018-12-31T07:21:01.812Z,427.73
2018-12-31T07:22:01.795Z,429.34
2018-12-31T07:23:01.830Z,431.05
2018-12-31T07:24:01.785Z,429.57
2018-12-31T07:25:01.771Z,430.92
2018-12-31T07:26:01.756Z,428.18
2018-12-31T07:27:01.761Z,435.03
2018-12-31T07:28:01.730Z,440.94
2018-12-31T07:29:01.749Z,433.56
2018-12-31T07:30:01.734Z,430.71
2018-12-31T07:31:02.379Z,434.49
2018-12-31T07:32:01.691Z,432.20
2018-12-31T07:33:01.690Z,434.37
2018-12-31T07:34:01.697Z,430.94
2018-12-31T07:35:01.667Z,432.28
2018-12-31T07:36:01.840Z,444.22
2018-12-31T07:37:01.645Z,438.61
2018-12-31T07:38:01.631Z,436.08
2018-12-31T07:39:01.608Z,438.33
2018-12-31T07:40:01.637Z,433.47
2018-12-31T07:41:01.591Z,432.01
2018-12-31T07:42:01.583Z,439.82
2018-12-31T07:43:01.580Z,432.10
2018-12-31T07:44:01.565Z,436.13
2018-12-31T07:45:01.612Z,434.59
2018-12-31T07:46:01.551Z,432.83
2018-12-31T07:47:01.544Z,429.86
2018-12-31T07:48:01.528Z,439.01
2018-12-31T07:49:01.511Z,433.64
2018-12-31T07:50:01.508Z,440.75
2018-12-31T07:51:01.501Z,436.22
2018-12-31T07:52:01.476Z,435.77
2018-12-31T07:53:01.455Z,433.65
2018-12-31T07:54:01.448Z,439.09
2018-12-31T07:55:01.455Z,443.24
2018-12-31T07:56:01.463Z,441.99
2018-12-31T07:57:01.427Z,438.18
2018-12-31T07:58:01.431Z,436.43
2018-12-31T07:59:01.395Z,439.36
2018-12-31T08:00:01.387Z,437.81
2018-12-31T08:01:01.385Z,438.23
2018-12-31T08:02:01.391Z,435.12
2018-12-31T08:03:01.372Z,433.75
2018-12-31T08:04:01.345Z,435.96
2018-12-31T08:05:01.336Z,437.27
2018-12-31T08:06:01.315Z,434.40
2018-12-31T08:07:01.317Z,435.83
2018-12-31T08:08:01.321Z,435.20
2018-12-31T08:09:01.294Z,429.38
2018-12-31T08:10:01.292Z,430.25
2018-12-31T08:11:01.262Z,432.87
2018-12-31T08:12:01.253Z,430.16
2018-12-31T08:13:01.270Z,433.85
2018-12-31T08:14:01.241Z,434.02
2018-12-31T08:15:01.234Z,428.87
2018-12-31T08:16:01.218Z,435.49
2018-12-31T08:17:01.205Z,435.55
2018-12-31T08:18:01.184Z,438.38
2018-12-31T08:19:01.199Z,436.72
2018-12-31T08:20:01.175Z,437.42
2018-12-31T08:21:01.166Z,433.31
2018-12-31T08:22:01.160Z,433.68
2018-12-31T08:23:01.133Z,427.59
2018-12-31T08:24:01.143Z,434.84
2018-12-31T08:25:01.108Z,433.72
2018-12-31T08:26:01.098Z,436.84
2018-12-31T08:27:01.106Z,438.30
2018-12-31T08:28:01.080Z,442.60
2018-12-31T08:29:01.070Z,434.73
2018-12-31T08:30:01.075Z,433.41
2018-12-31T08:31:01.071Z,433.80
2018-12-31T08:32:01.055Z,438.34
2018-12-31T08:33:01.028Z,431.57
2018-12-31T08:34:01.019Z,429.86
2018-12-31T08:35:01.056Z,431.17
2018-12-31T08:36:00.990Z,427.46
2018-12-31T08:37:00.995Z,429.62
2018-12-31T08:38:00.968Z,433.34
2018-12-31T08:39:00.978Z,431.65
2018-12-31T08:40:00.958Z,432.19
2018-12-31T08:41:00.980Z,439.96
2018-12-31T08:42:00.933Z,439.63
2018-12-31T08:43:00.917Z,433.94
2018-12-31T08:44:00.905Z,435.89
2018-12-31T08:45:00.901Z,439.09
2018-12-31T08:46:00.881Z,431.21
2018-12-31T08:47:00.905Z,434.68
2018-12-31T08:48:00.940Z,437.14
2018-12-31T08:49:00.854Z,432.98
2018-12-31T08:50:02.950Z,437.16
2018-12-31T08:51:00.843Z,426.47
2018-12-31T08:52:00.825Z,438.31
2018-12-31T08:53:00.857Z,436.18
2018-12-31T08:54:00.808Z,434.24
2018-12-31T08:55:00.798Z,437.08
2018-12-31T08:56:00.773Z,434.18
2018-12-31T08:57:00.754Z,436.02
2018-12-31T08:58:00.782Z,437.05
2018-12-31T08:59:00.741Z,439.62
2018-12-31T09:00:00.805Z,435.90
2018-12-31T09:01:00.720Z,435.37
2018-12-31T09:02:01.626Z,433.94
2018-12-31T09:03:00.696Z,435.20
2018-12-31T09:04:00.709Z,434.17
2018-12-31T09:05:00.679Z,438.33
2018-12-31T09:06:00.675Z,433.70
2018-12-31T09:07:00.653Z,436.74
2018-12-31T09:08:00.649Z,430.55
2018-12-31T09:09:00.650Z,437.12
2018-12-31T09:10:00.624Z,434.46
2018-12-31T09:11:00.623Z,435.85
2018-12-31T09:12:00.610Z,438.22
2018-12-31T09:13:00.590Z,437.81
2018-12-31T09:14:00.573Z,441.45
2018-12-31T09:15:00.581Z,435.17
2018-12-31T09:16:00.554Z,437.20
2018-12-31T09:17:00.536Z,432.83
2018-12-31T09:18:00.530Z,432.36
2018-12-31T09:19:00.528Z,430.02
2018-12-31T09:20:00.536Z,429.84
2018-12-31T09:21:00.494Z,433.55
2018-12-31T09:22:00.493Z,434.74
2018-12-31T09:23:00.480Z,433.86
2018-12-31T09:24:00.473Z,434.24
2018-12-31T09:25:00.493Z,435.30
2018-12-31T09:26:00.474Z,442.14
2018-12-31T09:27:00.423Z,441.50
2018-12-31T09:28:00.411Z,437.26
2018-12-31T09:29:00.409Z,430.99
2018-12-31T09:30:00.416Z,433.82
2018-12-31T09:31:00.400Z,431.80
2018-12-31T09:32:00.376Z,434.20
2018-12-31T09:33:00.370Z,430.98
2018-12-31T09:34:00.351Z,431.18
2018-12-31T09:35:00.352Z,428.80
2018-12-31T09:36:00.337Z,430.03
2018-12-31T09:37:00.334Z,432.03
2018-12-31T09:38:00.315Z,425.81
2018-12-31T09:39:00.308Z,429.99
2018-12-31T09:40:00.314Z,429.14
2018-12-31T09:41:00.276Z,430.95
2018-12-31T09:42:00.260Z,428.59
2018-12-31T09:43:00.259Z,433.79
2018-12-31T09:44:00.251Z,428.15
2018-12-31T09:45:00.266Z,426.84
2018-12-31T09:46:00.241Z,435.92
2018-12-31T09:47:00.208Z,435.91
2018-12-31T09:48:00.191Z,431.09
2018-12-31T09:49:00.184Z,430.01
2018-12-31T09:50:00.258Z,429.74
2018-12-31T09:51:00.178Z,423.11
2018-12-31T09:52:00.156Z,427.49
2018-12-31T09:53:00.140Z,428.83
2018-12-31T09:54:00.137Z,424.10
2018-12-31T09:55:00.166Z,425.93
2018-12-31T09:56:00.114Z,427.29
2018-12-31T09:57:00.100Z,426.04
2018-12-31T09:58:00.102Z,428.01
2018-12-31T09:59:00.088Z,428.58
2018-12-31T10:00:00.155Z,429.92
2018-12-31T10:01:00.054Z,428.91
2018-12-31T10:02:00.057Z,430.73
2018-12-31T10:03:00.029Z,431.35
2018-12-31T10:04:00.025Z,432.29
2018-12-31T10:05:00.009Z,432.50
2018-12-31T10:06:00.019Z,427.04
2018-12-31T10:06:59.985Z,430.72
2018-12-31T10:07:59.991Z,428.33
2018-12-31T10:08:59.973Z,427.94
2018-12-31T10:09:59.980Z,427.95
2018-12-31T10:10:59.953Z,428.76
2018-12-31T10:11:59.954Z,428.83
2018-12-31T10:12:59.915Z,429.26
2018-12-31T10:13:59.925Z,430.67
2018-12-31T10:15:00.081Z,432.54
2018-12-31T10:15:59.899Z,442.90
2018-12-31T10:16:59.887Z,438.76
2018-12-31T10:17:59.864Z,436.26
2018-12-31T10:18:59.853Z,430.50
2018-12-31T10:20:00.181Z,428.95
2018-12-31T10:20:59.850Z,428.98
2018-12-31T10:21:59.823Z,428.73
2018-12-31T10:22:59.825Z,430.22
2018-12-31T10:23:59.801Z,429.75
2018-12-31T10:25:00.173Z,428.75
2018-12-31T10:25:59.776Z,428.57
2018-12-31T10:26:59.768Z,429.08
2018-12-31T10:27:59.761Z,424.93
2018-12-31T10:28:59.752Z,428.38
2018-12-31T10:30:00.274Z,428.57
2018-12-31T10:30:59.732Z,430.87
2018-12-31T10:31:59.735Z,436.71
2018-12-31T10:32:59.716Z,442.34
2018-12-31T10:33:59.701Z,436.61
2018-12-31T10:34:59.706Z,433.14
2018-12-31T10:35:59.673Z,427.06
2018-12-31T10:36:59.684Z,429.78
2018-12-31T10:37:59.646Z,432.31
2018-12-31T10:39:00.360Z,428.32
2018-12-31T10:39:59.637Z,428.20
2018-12-31T10:40:59.629Z,427.53
2018-12-31T10:41:59.622Z,427.82
2018-12-31T10:42:59.604Z,430.84
2018-12-31T10:43:59.587Z,434.32
2018-12-31T10:44:59.589Z,430.33
2018-12-31T10:45:59.588Z,426.55
2018-12-31T10:46:59.546Z,428.82
2018-12-31T10:47:59.545Z,422.54
2018-12-31T10:48:59.531Z,415.71
2018-12-31T10:49:59.536Z,425.10
2018-12-31T10:50:59.502Z,414.84
2018-12-31T10:51:59.538Z,433.37
2018-12-31T10:52:59.488Z,423.78
2018-12-31T10:53:59.483Z,431.39
2018-12-31T10:54:59.463Z,428.21
2018-12-31T10:55:59.457Z,422.20
2018-12-31T10:56:59.439Z,421.83
2018-12-31T10:57:59.446Z,424.75
2018-12-31T10:58:59.452Z,425.53
2018-12-31T10:59:59.419Z,433.18
2018-12-31T11:00:59.396Z,427.04
2018-12-31T11:01:59.407Z,416.85
2018-12-31T11:02:59.383Z,429.41
2018-12-31T11:03:59.383Z,417.38
2018-12-31T11:04:59.339Z,419.20
2018-12-31T11:05:59.347Z,418.68
2018-12-31T11:06:59.343Z,421.33
2018-12-31T11:07:59.307Z,425.03
2018-12-31T11:08:59.370Z,426.17
2018-12-31T11:09:59.307Z,416.82
2018-12-31T11:10:59.284Z,426.65
2018-12-31T11:11:59.290Z,437.15
2018-12-31T11:12:59.281Z,439.78
2018-12-31T11:13:59.255Z,435.32
2018-12-31T11:14:59.397Z,424.34
2018-12-31T11:15:59.801Z,428.25
2018-12-31T11:16:59.228Z,423.67
2018-12-31T11:17:59.223Z,423.01
2018-12-31T11:18:59.203Z,412.88
2018-12-31T11:19:59.230Z,423.00
2018-12-31T11:20:59.198Z,433.50
2018-12-31T11:21:59.155Z,414.71
2018-12-31T11:22:59.199Z,426.02
2018-12-31T11:23:59.181Z,427.31
2018-12-31T11:24:59.133Z,424.25
2018-12-31T11:25:59.121Z,427.99
2018-12-31T11:26:59.110Z,428.10
2018-12-31T11:27:59.134Z,427.85
2018-12-31T11:28:59.075Z,429.12
2018-12-31T11:29:59.064Z,424.32
2018-12-31T11:30:59.057Z,412.06
2018-12-31T11:31:59.061Z,427.50
2018-12-31T11:32:59.059Z,429.10
2018-12-31T11:33:59.042Z,430.01
2018-12-31T11:34:59.021Z,429.86
2018-12-31T11:35:59.003Z,424.96
2018-12-31T11:36:59.014Z,426.41
2018-12-31T11:37:59.006Z,422.24
2018-12-31T11:38:58.984Z,431.61
2018-12-31T11:39:58.957Z,427.88
2018-12-31T11:40:58.945Z,425.98
2018-12-31T11:41:58.950Z,431.61
2018-12-31T11:42:58.965Z,429.74
2018-12-31T11:43:58.921Z,424.36
2018-12-31T11:44:58.922Z,428.54
2018-12-31T11:45:58.907Z,428.40
2018-12-31T11:46:58.931Z,413.40
2018-12-31T11:47:58.887Z,426.17
2018-12-31T11:48:58.875Z,434.59
2018-12-31T11:49:59.736Z,418.21
2018-12-31T11:50:58.840Z,428.29
2018-12-31T11:51:58.828Z,426.88
2018-12-31T11:52:58.824Z,424.36
2018-12-31T11:53:58.819Z,429.11
2018-12-31T11:54:58.792Z,432.38
2018-12-31T11:55:58.788Z,426.89
2018-12-31T11:56:58.778Z,432.80
2018-12-31T11:57:58.806Z,431.09
2018-12-31T11:58:58.749Z,429.79
2018-12-31T11:59:58.746Z,430.87
2018-12-31T12:00:58.737Z,433.22
2018-12-31T12:01:58.719Z,430.98
2018-12-31T12:02:58.725Z,426.60
2018-12-31T12:03:58.724Z,428.75
2018-12-31T12:04:58.712Z,428.83
2018-12-31T12:05:58.670Z,428.76
2018-12-31T12:06:58.674Z,431.18
2018-12-31T12:07:58.655Z,435.27
2018-12-31T12:08:58.907Z,435.11
2018-12-31T12:09:59.611Z,430.80
2018-12-31T12:10:58.638Z,434.74
2018-12-31T12:11:58.614Z,433.31
2018-12-31T12:12:58.594Z,435.42
2018-12-31T12:13:58.576Z,432.46
2018-12-31T12:14:58.608Z,434.11
2018-12-31T12:15:58.574Z,435.29
2018-12-31T12:16:58.563Z,434.93
2018-12-31T12:17:58.623Z,436.73
2018-12-31T12:18:58.551Z,429.48
2018-12-31T12:19:58.553Z,441.94
2018-12-31T12:20:58.509Z,435.24
2018-12-31T12:21:58.490Z,433.89
2018-12-31T12:22:58.479Z,429.13
2018-12-31T12:23:58.525Z,429.98
2018-12-31T12:24:58.467Z,422.57
2018-12-31T12:25:58.488Z,435.38
2018-12-31T12:26:58.439Z,432.34
2018-12-31T12:27:58.441Z,432.20